Time;durP1;ratioP1;P1;durP2;ratioP2;P2;SDS_P1;SDS_P2;PMS_P1;PMS_P2;Temp;Humidity;BMP_temperature;BMP_pressure;BME280_temperature;BME280_humidity;BME280_pressure;Samples;Min_cycle;Max_cycle;Signal;HPM_P1;HPM_P2
2023/08/08 00:00:34;;;;;;;1.58;1.02;;;15.60;99.90;;;14.96;100.00;101581.13;4170452;28;20033;-73
2023/08/08 00:02:35;;;;;;;3.55;0.98;;;15.50;99.90;;;14.94;100.00;101591.88;4142107;28;20426;-73
2023/08/08 00:04:36;;;;;;;2.40;0.80;;;15.50;99.90;;;14.85;100.00;101584.06;4167725;28;20022;-73
2023/08/08 00:06:37;;;;;;;4.72;1.23;;;15.40;99.90;;;14.76;100.00;101585.03;4149172;28;20033;-73
2023/08/08 00:08:39;;;;;;;3.55;1.50;;;15.40;99.90;;;14.62;100.00;101580.38;4143430;28;20022;-73
2023/08/08 00:10:39;;;;;;;1.52;0.80;;;15.30;99.90;;;14.54;100.00;101588.31;4142601;28;20482;-73
2023/08/08 00:12:40;;;;;;;2.90;1.08;;;15.20;99.90;;;14.46;100.00;101601.53;4133260;28;20093;-73
2023/08/08 00:14:41;;;;;;;4.47;1.30;;;15.00;99.90;;;14.36;100.00;101591.91;4157634;28;20583;-73
2023/08/08 00:16:42;;;;;;;4.00;1.30;;;14.90;99.90;;;14.30;100.00;101583.72;4163698;28;20050;-73
2023/08/08 00:18:43;;;;;;;2.85;1.00;;;14.90;99.90;;;14.26;100.00;101585.00;4153540;28;20034;-73
2023/08/08 00:20:44;;;;;;;4.97;1.23;;;14.80;99.90;;;14.25;100.00;101580.69;4148752;28;20034;-73
2023/08/08 00:22:44;;;;;;;2.95;1.15;;;14.80;99.90;;;14.19;100.00;101582.16;4153270;28;20026;-73
2023/08/08 00:24:45;;;;;;;3.00;1.10;;;14.70;99.90;;;14.16;100.00;101585.13;4142647;28;20026;-73
2023/08/08 00:26:46;;;;;;;2.03;1.10;;;14.70;99.90;;;14.13;100.00;101584.59;4161772;28;20505;-73
2023/08/08 00:28:47;;;;;;;3.40;1.15;;;14.70;99.90;;;14.08;100.00;101586.91;4157315;28;20034;-73
2023/08/08 00:30:48;;;;;;;2.75;1.52;;;14.70;99.90;;;14.12;100.00;101580.31;4151988;28;20540;-73
2023/08/08 00:32:49;;;;;;;2.72;1.50;;;14.70;99.90;;;14.14;100.00;101573.84;4153311;28;20030;-73
2023/08/08 00:34:49;;;;;;;3.33;1.10;;;14.70;99.90;;;14.18;100.00;101580.50;4145437;28;20021;-73
2023/08/08 00:36:50;;;;;;;3.88;1.05;;;14.70;99.90;;;14.20;100.00;101570.56;4157231;28;20040;-73
2023/08/08 00:38:51;;;;;;;2.42;1.20;;;14.80;99.90;;;14.23;100.00;101572.91;4153276;28;20037;-73
2023/08/08 00:40:52;;;;;;;4.15;1.60;;;14.80;99.90;;;14.26;100.00;101585.84;4153386;28;20034;-73
2023/08/08 00:42:53;;;;;;;3.47;1.20;;;14.80;99.90;;;14.24;100.00;101571.91;4153432;28;20433;-73
2023/08/08 00:44:54;;;;;;;5.07;1.00;;;14.80;99.90;;;14.26;100.00;101580.53;4147679;28;20034;-73
2023/08/08 00:46:55;;;;;;;2.58;1.20;;;14.80;99.90;;;14.23;100.00;101564.09;4153569;28;20101;-73
2023/08/08 00:48:56;;;;;;;4.22;1.10;;;14.80;99.90;;;14.23;100.00;101570.25;4147067;28;20032;-73
2023/08/08 00:50:56;;;;;;;5.90;1.38;;;14.80;99.90;;;14.23;100.00;101567.59;4144234;28;20057;-73
2023/08/08 00:52:57;;;;;;;4.05;1.30;;;14.80;99.90;;;14.24;100.00;101565.78;4151936;28;20502;-73
2023/08/08 00:54:59;;;;;;;3.20;1.27;;;14.80;99.90;;;14.24;100.00;101560.47;4135605;28;20042;-73
2023/08/08 00:57:00;;;;;;;2.20;1.15;;;14.80;99.90;;;14.22;100.00;101557.97;4153334;28;20034;-73
2023/08/08 00:59:02;;;;;;;1.80;1.10;;;14.80;99.90;;;14.20;100.00;101549.34;4143388;28;20612;-73
2023/08/08 01:01:03;;;;;;;3.92;1.27;;;14.70;99.90;;;14.20;100.00;101552.00;4135528;28;20031;-73
2023/08/08 01:03:04;;;;;;;4.43;0.90;;;14.70;99.90;;;14.16;100.00;101550.63;4149614;28;20021;-73
2023/08/08 01:05:07;;;;;;;2.88;1.25;;;14.70;99.90;;;14.11;100.00;101560.91;4165090;28;20030;-73
2023/08/08 01:07:36;;;;;;;3.90;1.25;;;14.70;99.90;;;14.03;100.00;101554.72;4143498;28;20425;-73
2023/08/08 01:09:46;;;;;;;2.30;1.10;;;14.60;99.90;;;13.92;100.00;101565.63;4150033;28;20042;-73
2023/08/08 01:11:49;;;;;;;2.03;1.23;;;14.50;99.90;;;13.83;100.00;101559.41;4136274;28;20621;-72
2023/08/08 01:13:53;;;;;;;2.33;1.10;;;14.40;99.90;;;13.69;100.00;101549.41;4142500;28;20041;-73
2023/08/08 01:15:57;;;;;;;3.10;0.98;;;14.30;99.90;;;13.58;100.00;101558.47;4132786;28;20053;-73
2023/08/08 01:17:58;;;;;;;3.38;0.80;;;14.20;99.90;;;13.49;100.00;101563.84;4161145;28;20042;-73
2023/08/08 01:20:00;;;;;;;3.33;1.00;;;14.10;99.90;;;13.41;100.00;101567.25;4152813;28;20041;-73
2023/08/08 01:22:21;;;;;;;4.43;1.85;;;14.00;99.90;;;13.32;100.00;101574.31;4152862;28;20037;-73
2023/08/08 01:24:29;;;;;;;3.45;1.10;;;13.90;99.90;;;13.21;100.00;101569.25;4151087;28;20433;-73
2023/08/08 01:26:30;;;;;;;4.95;1.10;;;13.80;99.90;;;13.15;100.00;101567.22;4142062;28;20034;-73
2023/08/08 01:28:31;;;;;;;3.58;1.58;;;13.70;99.90;;;13.12;100.00;101567.53;4144877;28;20029;-73
2023/08/08 01:30:32;;;;;;;3.60;1.25;;;13.70;99.90;;;13.08;100.00;101568.00;4155894;28;20050;-73
2023/08/08 01:32:33;;;;;;;3.13;1.45;;;13.70;99.90;;;13.12;100.00;101567.53;4151074;28;20026;-73
2023/08/08 01:34:35;;;;;;;2.15;1.20;;;13.70;99.90;;;13.15;100.00;101572.53;4152734;28;20405;-73
2023/08/08 01:37:09;;;;;;;1.25;0.80;;;13.70;99.90;;;13.19;100.00;101568.59;4144826;28;20030;-73
2023/08/08 01:39:16;;;;;;;5.80;1.55;;;13.70;99.90;;;13.25;100.00;101557.38;4149013;28;20022;-73
2023/08/08 01:41:18;;;;;;;2.45;1.00;;;13.80;99.90;;;13.27;100.00;101559.88;4135539;28;20027;-73
2023/08/08 01:43:21;;;;;;;2.90;1.00;;;13.80;99.90;;;13.32;100.00;101563.72;4146970;28;20025;-73
2023/08/08 01:45:24;;;;;;;2.90;1.33;;;13.80;99.90;;;13.38;100.00;101562.25;4153438;28;20065;-73
2023/08/08 01:47:25;;;;;;;2.55;1.25;;;13.90;99.90;;;13.45;100.00;101555.38;4152612;28;20022;-73
2023/08/08 01:49:26;;;;;;;2.85;1.40;;;14.00;99.90;;;13.52;100.00;101555.59;4144091;28;20064;-73
2023/08/08 01:51:27;;;;;;;3.53;1.60;;;14.00;99.90;;;13.58;100.00;101558.47;4151311;28;20493;-73
2023/08/08 01:53:28;;;;;;;3.92;1.45;;;14.10;99.90;;;13.61;100.00;101558.16;4150141;28;20030;-73
2023/08/08 01:55:30;;;;;;;4.13;1.40;;;14.10;99.90;;;13.61;100.00;101549.34;4152554;28;20076;-73
2023/08/08 01:57:31;;;;;;;7.15;1.50;;;14.10;99.90;;;13.58;100.00;101547.00;4143335;28;20034;-73
2023/08/08 01:59:32;;;;;;;5.22;1.23;;;14.20;99.90;;;13.60;100.00;101553.81;4157042;28;20051;-73
2023/08/08 02:01:32;;;;;;;1.95;1.35;;;14.20;99.90;;;13.61;100.00;101550.19;4152459;28;20029;-73
2023/08/08 02:03:33;;;;;;;2.20;1.10;;;14.20;99.90;;;13.63;100.00;101556.16;4152268;28;20026;-73
2023/08/08 02:05:34;;;;;;;8.98;2.17;;;14.20;99.90;;;13.66;100.00;101550.53;4152415;28;20073;-73
2023/08/08 02:07:35;;;;;;;2.50;1.15;;;14.20;99.90;;;13.70;100.00;101551.06;4152349;28;20056;-73
2023/08/08 02:09:36;;;;;;;3.25;1.40;;;14.30;99.90;;;13.75;100.00;101554.06;4149601;28;20468;-73
2023/08/08 02:11:37;;;;;;;3.28;1.42;;;14.30;99.90;;;13.76;100.00;101548.63;4152291;28;20037;-73
2023/08/08 02:13:38;;;;;;;2.08;1.20;;;14.30;99.90;;;13.75;100.00;101539.00;4160386;28;20032;-73
2023/08/08 02:15:38;;;;;;;1.90;0.93;;;14.40;99.90;;;13.81;100.00;101546.31;4134819;28;20027;-73
2023/08/08 02:17:39;;;;;;;3.95;1.60;;;14.40;99.90;;;13.83;100.00;101547.00;4150738;28;20033;-73
2023/08/08 02:19:40;;;;;;;3.95;1.00;;;14.40;99.90;;;13.85;100.00;101552.16;4168581;28;20029;-73
2023/08/08 02:21:41;;;;;;;2.63;1.23;;;14.40;99.90;;;13.86;100.00;101554.63;4168636;28;20025;-73
2023/08/08 02:23:42;;;;;;;2.60;1.30;;;14.40;99.90;;;13.86;100.00;101548.50;4134685;28;20437;-73
2023/08/08 02:25:43;;;;;;;2.53;1.20;;;14.40;99.90;;;13.93;100.00;101541.56;4136953;28;20073;-73
2023/08/08 02:27:44;;;;;;;2.75;1.00;;;14.50;99.90;;;13.95;100.00;101544.91;4156391;28;20021;-73
2023/08/08 02:29:45;;;;;;;4.60;1.10;;;14.50;99.90;;;13.98;100.00;101538.47;4143683;28;20054;-73
2023/08/08 02:31:45;;;;;;;2.13;0.90;;;14.60;99.90;;;13.97;100.00;101534.97;4162312;28;20489;-73
2023/08/08 02:33:50;;;;;;;2.72;1.20;;;14.50;99.90;;;13.97;100.00;101528.84;4137261;28;20058;-73
2023/08/08 02:35:51;;;;;;;3.10;1.35;;;14.60;99.90;;;13.95;100.00;101528.97;4134838;28;20462;-73
2023/08/08 02:37:52;;;;;;;4.05;1.25;;;14.60;99.90;;;13.94;100.00;101522.03;4134744;28;20101;-73
2023/08/08 02:39:53;;;;;;;3.50;1.63;;;14.60;99.90;;;13.95;100.00;101523.69;4162474;28;20044;-73
2023/08/08 02:41:54;;;;;;;2.22;1.02;;;14.50;99.90;;;13.94;100.00;101516.72;4137155;28;20031;-73
2023/08/08 02:43:55;;;;;;;4.45;1.20;;;14.50;99.90;;;13.99;100.00;101526.84;4138276;28;20410;-73
2023/08/08 02:45:55;;;;;;;2.38;1.10;;;14.50;99.90;;;13.99;100.00;101518.88;4147047;28;20018;-73
2023/08/08 02:47:56;;;;;;;3.53;1.30;;;14.50;99.90;;;14.00;100.00;101521.41;4154912;28;20029;-73
2023/08/08 02:49:57;;;;;;;5.85;1.33;;;14.50;99.90;;;13.99;100.00;101517.06;4155194;28;20493;-73
2023/08/08 02:51:58;;;;;;;2.80;1.30;;;14.50;99.90;;;13.95;100.00;101515.72;4155149;28;20065;-73
2023/08/08 02:53:59;;;;;;;3.67;1.30;;;14.50;99.90;;;14.01;100.00;101527.53;4155131;28;20034;-73
2023/08/08 02:55:59;;;;;;;1.70;1.00;;;14.50;99.90;;;14.02;100.00;101529.19;4155084;28;20481;-73
2023/08/08 02:58:00;;;;;;;2.65;0.98;;;14.60;99.90;;;14.04;100.00;101522.72;4155039;28;20061;-73
2023/08/08 03:00:03;;;;;;;4.25;1.60;;;14.60;99.90;;;14.03;100.00;101517.59;4155093;28;20030;-73
2023/08/08 03:02:05;;;;;;;3.45;1.05;;;14.60;99.90;;;14.01;100.00;101517.72;4154925;28;20109;-73
2023/08/08 03:04:06;;;;;;;3.92;1.30;;;14.60;99.90;;;14.01;100.00;101523.03;4146983;28;20022;-73
2023/08/08 03:06:07;;;;;;;2.78;1.15;;;14.60;99.90;;;14.05;100.00;101537.66;4154867;28;20096;-73
2023/08/08 03:08:08;;;;;;;2.55;0.88;;;14.60;99.90;;;14.04;100.00;101536.00;4153250;28;20160;-73
2023/08/08 03:10:09;;;;;;;2.72;1.40;;;14.60;99.90;;;14.02;100.00;101524.72;4165577;28;20037;-73
2023/08/08 03:12:10;;;;;;;2.55;1.20;;;14.60;99.90;;;14.04;100.00;101517.41;4129752;28;20022;-73
2023/08/08 03:14:11;;;;;;;3.42;1.20;;;14.60;99.90;;;14.05;100.00;101523.56;4154850;28;20033;-73
2023/08/08 03:16:12;;;;;;;2.80;1.00;;;14.60;99.90;;;14.06;100.00;101530.53;4160641;28;20025;-73
2023/08/08 03:18:12;;;;;;;2.33;1.08;;;14.60;99.90;;;14.03;100.00;101523.72;4154587;28;20030;-73
2023/08/08 03:20:13;;;;;;;3.90;1.35;;;14.60;99.90;;;14.00;100.00;101515.25;4145448;28;20051;-73
2023/08/08 03:22:14;;;;;;;2.50;1.70;;;14.60;99.90;;;13.98;100.00;101518.06;4153475;28;20058;-73
2023/08/08 03:24:15;;;;;;;1.88;1.00;;;14.50;99.90;;;13.94;100.00;101513.25;4169383;28;20021;-73
2023/08/08 03:26:16;;;;;;;3.95;1.35;;;14.50;99.90;;;13.91;100.00;101513.56;4137178;28;20026;-73
2023/08/08 03:28:17;;;;;;;2.50;1.10;;;14.50;99.90;;;13.86;100.00;101504.25;4170998;28;20021;-73
2023/08/08 03:30:18;;;;;;;3.70;1.30;;;14.40;99.90;;;13.85;100.00;101509.72;4142120;28;20069;-73
2023/08/08 03:32:18;;;;;;;3.85;1.23;;;14.40;99.90;;;13.84;100.00;101516.00;4122416;28;20046;-73
2023/08/08 03:34:19;;;;;;;4.40;1.30;;;14.40;99.90;;;13.81;100.00;101521.63;4142938;28;20413;-73
2023/08/08 03:36:20;;;;;;;4.72;1.27;;;14.40;99.90;;;13.73;100.00;101514.47;4129484;28;20026;-73
2023/08/08 03:38:21;;;;;;;2.10;1.55;;;14.30;99.90;;;13.69;100.00;101517.56;4147817;28;20489;-73
2023/08/08 03:40:22;;;;;;;2.17;1.10;;;14.30;99.90;;;13.62;100.00;101527.16;4141103;28;20022;-73
2023/08/08 03:42:23;;;;;;;4.57;1.30;;;14.20;99.90;;;13.51;100.00;101514.16;4154448;28;20034;-73
2023/08/08 03:44:24;;;;;;;4.40;1.15;;;14.10;99.90;;;13.41;100.00;101518.75;4153129;28;20022;-73
2023/08/08 03:46:25;;;;;;;3.53;1.13;;;14.00;99.90;;;13.34;100.00;101523.81;4142462;28;20029;-73
2023/08/08 03:48:26;;;;;;;2.90;0.98;;;13.90;99.90;;;13.26;100.00;101532.53;4136596;28;20098;-73
2023/08/08 03:50:26;;;;;;;2.40;1.20;;;13.90;99.90;;;13.26;100.00;101537.81;4138105;28;20034;-73
2023/08/08 03:52:27;;;;;;;3.00;1.17;;;13.80;99.90;;;13.24;100.00;101539.81;4152946;28;20030;-73
2023/08/08 03:54:28;;;;;;;3.17;1.88;;;13.80;99.90;;;13.30;100.00;101539.19;4146799;28;20081;-73
2023/08/08 03:56:29;;;;;;;2.47;1.38;;;13.80;99.90;;;13.29;100.00;101532.22;4149888;28;20022;-73
2023/08/08 03:58:30;;;;;;;2.45;1.30;;;13.90;99.90;;;13.38;100.00;101529.66;4136879;28;20582;-72
2023/08/08 04:00:32;;;;;;;2.97;1.27;;;13.90;99.90;;;13.40;100.00;101525.03;4143696;28;20051;-73
2023/08/08 04:02:32;;;;;;;2.40;1.05;;;14.00;99.90;;;13.42;100.00;101528.34;4143303;28;20096;-73
2023/08/08 04:04:33;;;;;;;3.15;1.30;;;14.00;99.90;;;13.47;100.00;101534.03;4150314;28;20026;-73
2023/08/08 04:06:34;;;;;;;4.68;1.20;;;14.10;99.90;;;13.48;100.00;101535.66;4154008;28;20506;-73
2023/08/08 04:08:35;;;;;;;4.22;1.52;;;14.00;99.90;;;13.48;100.00;101533.84;4153987;28;20026;-73
2023/08/08 04:10:36;;;;;;;2.22;1.13;;;14.00;99.90;;;13.53;100.00;101536.06;4143559;28;20496;-73
2023/08/08 04:12:37;;;;;;;4.28;1.35;;;14.10;99.90;;;13.57;100.00;101524.97;4148772;28;20226;-73
2023/08/08 04:14:38;;;;;;;7.57;1.58;;;14.10;99.90;;;13.59;100.00;101528.28;4152514;28;20069;-73
2023/08/08 04:16:39;;;;;;;5.32;1.63;;;14.20;99.90;;;13.66;100.00;101528.50;4147406;28;20030;-73
2023/08/08 04:18:40;;;;;;;6.82;1.73;;;14.20;99.90;;;13.67;100.00;101520.41;4137371;28;20116;-73
2023/08/08 04:20:41;;;;;;;6.00;2.13;;;14.20;99.90;;;13.72;100.00;101522.56;4131480;28;20022;-73
2023/08/08 04:22:41;;;;;;;2.83;1.48;;;14.30;99.90;;;13.75;100.00;101511.66;4137445;28;20026;-73
2023/08/08 04:24:43;;;;;;;4.72;1.40;;;14.30;99.90;;;13.79;100.00;101511.19;4124620;28;20052;-73
2023/08/08 04:26:44;;;;;;;4.75;1.60;;;14.30;99.90;;;13.81;100.00;101505.72;4136161;28;20030;-73
2023/08/08 04:28:45;;;;;;;6.18;1.55;;;14.40;99.90;;;13.85;100.00;101507.91;4137393;28;20030;-73
2023/08/08 04:30:46;;;;;;;4.55;1.90;;;14.40;99.90;;;13.86;100.00;101506.06;4149804;28;20058;-73
2023/08/08 04:32:46;;;;;;;4.82;1.40;;;14.40;99.90;;;13.92;100.00;101510.72;4148077;28;20040;-73
2023/08/08 04:34:47;;;;;;;4.13;1.42;;;14.50;99.90;;;13.92;100.00;101509.94;4136885;28;20042;-73
2023/08/08 04:36:48;;;;;;;3.33;1.40;;;14.50;99.90;;;13.93;100.00;101508.91;4146730;28;20025;-73
2023/08/08 04:38:49;;;;;;;3.47;1.40;;;14.50;99.90;;;13.96;100.00;101509.44;4136073;28;20081;-73
2023/08/08 04:40:50;;;;;;;3.40;1.40;;;14.50;99.90;;;13.98;100.00;101512.75;4137330;28;20035;-73
2023/08/08 04:42:51;;;;;;;3.95;1.35;;;14.50;99.90;;;14.00;100.00;101513.44;4137153;28;20030;-73
2023/08/08 04:44:52;;;;;;;4.97;1.40;;;14.60;99.90;;;14.02;100.00;101507.97;4131140;28;20457;-73
2023/08/08 04:46:53;;;;;;;3.75;1.50;;;14.60;99.90;;;14.04;100.00;101521.88;4152069;28;20032;-73
2023/08/08 04:48:54;;;;;;;2.95;1.25;;;14.60;99.90;;;14.02;100.00;101524.72;4153264;28;20481;-73
2023/08/08 04:50:55;;;;;;;2.92;1.33;;;14.60;99.90;;;14.02;100.00;101521.22;4153431;28;20037;-73
2023/08/08 04:52:56;;;;;;;3.47;1.20;;;14.60;99.90;;;14.05;100.00;101527.06;4141346;28;20022;-73
2023/08/08 04:54:56;;;;;;;2.35;1.38;;;14.60;99.90;;;14.07;100.00;101527.72;4146696;28;20034;-73
2023/08/08 04:56:57;;;;;;;2.72;1.30;;;14.60;99.90;;;14.06;100.00;101531.38;4137128;28;20034;-73
2023/08/08 04:58:58;;;;;;;3.78;1.20;;;14.60;99.90;;;14.07;100.00;101535.66;4137071;28;20026;-73
2023/08/08 05:00:59;;;;;;;1.85;1.13;;;14.60;99.90;;;14.06;100.00;101526.06;4146453;28;20033;-73
2023/08/08 05:03:00;;;;;;;2.42;1.20;;;14.60;99.90;;;14.09;100.00;101533.72;4136168;28;20026;-73
2023/08/08 05:05:01;;;;;;;3.85;1.58;;;14.60;99.90;;;14.03;100.00;101526.38;4153228;28;20560;-73
2023/08/08 05:07:02;;;;;;;3.95;1.77;;;14.60;99.90;;;14.04;100.00;101535.16;4152940;28;20094;-73
2023/08/08 05:09:03;;;;;;;3.17;1.30;;;14.60;99.90;;;13.99;100.00;101538.28;4152948;28;20018;-73
2023/08/08 05:11:04;;;;;;;3.45;1.50;;;14.50;99.90;;;13.94;100.00;101537.13;4152803;28;20084;-73
2023/08/08 05:13:05;;;;;;;2.92;1.50;;;14.50;99.90;;;13.87;100.00;101531.59;4153177;28;20034;-73
2023/08/08 05:15:06;;;;;;;2.47;1.42;;;14.40;99.90;;;13.79;100.00;101544.81;4153020;28;20034;-73
2023/08/08 05:17:07;;;;;;;3.03;1.42;;;14.30;99.90;;;13.72;100.00;101549.09;4124841;28;20026;-73
2023/08/08 05:19:08;;;;;;;3.17;1.58;;;14.30;99.90;;;13.66;100.00;101536.44;4150265;28;20040;-73
2023/08/08 05:21:08;;;;;;;2.38;1.40;;;14.20;99.90;;;13.61;100.00;101542.25;4152899;28;20459;-73
2023/08/08 05:23:09;;;;;;;6.00;1.67;;;14.20;99.90;;;13.61;100.00;101562.59;4145771;28;20095;-73
2023/08/08 05:25:10;;;;;;;3.03;1.42;;;14.20;99.90;;;13.60;100.00;101560.94;4136678;28;20049;-73
2023/08/08 05:27:11;;;;;;;3.80;1.77;;;14.10;99.90;;;13.65;100.00;101561.31;4136519;28;20029;-73
2023/08/08 05:29:12;;;;;;;2.53;1.23;;;14.20;99.90;;;13.71;100.00;101566.81;4139528;28;20395;-73
2023/08/08 05:31:13;;;;;;;2.95;1.05;;;14.20;99.90;;;13.78;100.00;101578.47;4152800;28;20091;-73
2023/08/08 05:33:14;;;;;;;4.13;1.40;;;14.30;99.90;;;13.85;100.00;101576.88;4144545;28;20034;-73
2023/08/08 05:35:15;;;;;;;3.80;2.05;;;14.30;99.90;;;13.94;100.00;101575.09;4164706;28;20025;-73
2023/08/08 05:37:15;;;;;;;4.97;1.60;;;14.40;99.90;;;14.00;100.00;101563.84;4135400;28;20034;-73
2023/08/08 05:39:16;;;;;;;4.10;2.38;;;14.50;99.90;;;14.12;100.00;101557.28;4135864;28;20057;-73
2023/08/08 05:41:17;;;;;;;4.32;1.85;;;14.60;99.90;;;14.22;100.00;101547.34;4161485;28;20067;-73
2023/08/08 05:43:18;;;;;;;4.05;1.45;;;14.70;99.90;;;14.23;100.00;101537.56;4168851;28;20049;-72
2023/08/08 05:45:19;;;;;;;3.65;1.55;;;14.80;99.90;;;14.36;100.00;101553.91;4168779;28;20123;-73
2023/08/08 05:47:20;;;;;;;3.08;1.50;;;14.90;99.90;;;14.52;100.00;101558.41;4145771;28;20026;-73
2023/08/08 05:49:20;;;;;;;3.63;1.58;;;15.00;99.90;;;14.65;100.00;101558.78;4143655;28;20061;-73
2023/08/08 05:51:21;;;;;;;5.93;2.00;;;15.10;99.90;;;14.72;100.00;101551.84;4157019;28;20552;-73
2023/08/08 05:53:22;;;;;;;3.58;1.67;;;15.10;99.90;;;14.72;100.00;101541.22;4149755;28;20030;-73
2023/08/08 05:55:23;;;;;;;3.80;1.70;;;15.20;99.90;;;14.69;100.00;101539.75;4151372;28;20481;-73
2023/08/08 05:57:24;;;;;;;3.60;1.50;;;15.10;99.90;;;14.67;100.00;101535.56;4143100;28;20459;-73
2023/08/08 05:59:25;;;;;;;4.85;1.75;;;15.10;99.90;;;14.60;100.00;101534.56;4152340;28;20022;-73
2023/08/08 06:01:26;;;;;;;4.13;1.88;;;15.00;99.90;;;14.43;100.00;101530.19;4142858;28;20035;-73
2023/08/08 06:03:27;;;;;;;6.22;2.35;;;14.90;99.90;;;14.28;100.00;101532.59;4139110;28;20126;-73
2023/08/08 06:05:28;;;;;;;5.40;1.42;;;14.90;99.90;;;14.16;100.00;101525.91;4142675;28;20509;-73
2023/08/08 06:07:29;;;;;;;3.58;1.52;;;14.80;99.90;;;14.14;100.00;101531.41;4150836;28;20025;-73
2023/08/08 06:09:31;;;;;;;3.33;1.48;;;14.80;99.90;;;14.12;100.00;101530.75;4154050;28;20026;-73
2023/08/08 06:11:32;;;;;;;5.32;1.90;;;14.70;99.90;;;14.11;100.00;101539.69;4152271;28;20030;-72
2023/08/08 06:13:32;;;;;;;3.05;1.80;;;14.70;99.90;;;14.15;100.00;101538.38;4152327;28;20048;-73
2023/08/08 06:15:33;;;;;;;4.00;1.95;;;14.80;99.90;;;14.19;100.00;101531.75;4154690;28;20030;-73
2023/08/08 06:17:34;;;;;;;4.00;1.60;;;14.80;99.90;;;14.24;100.00;101529.47;4136769;28;20030;-73
2023/08/08 06:19:35;;;;;;;3.72;1.83;;;14.90;99.90;;;14.42;100.00;101541.81;4156664;28;20045;-73
2023/08/08 06:21:36;;;;;;;4.15;1.92;;;15.00;99.90;;;14.60;100.00;101539.88;4147828;28;20022;-73
2023/08/08 06:23:37;;;;;;;5.07;1.60;;;15.10;99.90;;;14.77;100.00;101541.56;4165601;28;20048;-73
2023/08/08 06:25:38;;;;;;;5.25;1.73;;;15.30;99.90;;;15.04;100.00;101553.72;4171911;28;20484;-73
2023/08/08 06:27:39;;;;;;;4.53;1.60;;;15.40;99.90;;;15.29;100.00;101550.88;4150957;28;20037;-73
2023/08/08 06:29:40;;;;;;;4.80;2.13;;;15.60;99.90;;;15.52;100.00;101543.09;4162197;28;20054;-72
2023/08/08 06:31:41;;;;;;;4.10;1.90;;;15.80;99.90;;;15.75;100.00;101559.16;4144556;28;20129;-72
2023/08/08 06:33:42;;;;;;;4.80;1.60;;;16.10;99.90;;;15.99;100.00;101557.28;4168172;28;20022;-72
2023/08/08 06:35:44;;;;;;;4.03;1.65;;;16.30;99.90;;;16.25;100.00;101554.34;4168312;28;20033;-72
2023/08/08 06:37:45;;;;;;;5.32;1.70;;;16.50;99.90;;;16.48;100.00;101562.41;4144524;28;20494;-72
2023/08/08 06:39:46;;;;;;;3.30;1.52;;;16.80;99.90;;;16.72;100.00;101564.13;4164723;28;20030;-72
2023/08/08 06:41:46;;;;;;;4.45;1.55;;;17.00;99.90;;;16.90;100.00;101559.34;4137796;28;20049;-72
2023/08/08 06:43:47;;;;;;;4.93;1.63;;;17.20;99.90;;;17.03;100.00;101555.09;4154058;28;20037;-72
2023/08/08 06:45:48;;;;;;;3.92;1.20;;;17.40;99.90;;;17.06;100.00;101548.56;4148473;28;20018;-72
2023/08/08 06:47:49;;;;;;;5.65;1.50;;;17.50;99.90;;;17.15;100.00;101547.50;4137483;28;20026;-72
2023/08/08 06:49:50;;;;;;;4.93;1.50;;;17.50;99.90;;;17.19;100.00;101551.47;4153877;28;20057;-73
2023/08/08 06:51:51;;;;;;;6.97;2.47;;;17.60;99.90;;;17.19;100.00;101548.81;4165100;28;20033;-73
2023/08/08 06:53:52;;;;;;;4.38;1.92;;;17.60;99.90;;;17.13;100.00;101541.50;4155216;28;20030;-73
2023/08/08 06:55:53;;;;;;;4.97;1.83;;;17.50;99.90;;;17.00;100.00;101528.78;4145799;28;20054;-72
2023/08/08 06:57:54;;;;;;;2.97;1.27;;;17.40;99.90;;;16.84;100.00;101536.91;4153819;28;20033;-72
2023/08/08 06:59:55;;;;;;;4.32;1.90;;;17.30;99.90;;;16.65;100.00;101540.03;4171236;28;20029;-72
2023/08/08 07:01:56;;;;;;;3.65;1.60;;;17.20;99.90;;;16.62;100.00;101547.53;4171226;28;20459;-72
2023/08/08 07:03:57;;;;;;;3.38;1.50;;;17.10;99.90;;;16.68;100.00;101542.34;4171471;28;20014;-72
2023/08/08 07:05:58;;;;;;;4.50;1.70;;;17.10;99.90;;;16.83;100.00;101547.72;4171312;28;20112;-72
2023/08/08 07:07:59;;;;;;;5.68;1.63;;;17.20;99.90;;;16.88;100.00;101550.69;4171353;28;20029;-73
2023/08/08 07:09:59;;;;;;;3.28;1.90;;;17.30;99.90;;;16.93;100.00;101546.50;4149300;28;20429;-73
2023/08/08 07:12:00;;;;;;;5.13;1.70;;;17.30;99.90;;;17.10;100.00;101552.53;4162553;28;20029;-72
2023/08/08 07:14:01;;;;;;;4.75;1.70;;;17.40;99.90;;;17.22;100.00;101550.28;4170986;28;20030;-72
2023/08/08 07:16:02;;;;;;;9.57;2.40;;;17.40;99.90;;;17.27;100.00;101547.88;4162479;28;20028;-72
2023/08/08 07:18:04;;;;;;;4.32;1.75;;;17.50;99.90;;;17.37;100.00;101551.97;4141472;28;20026;-72
2023/08/08 07:20:06;;;;;;;5.00;1.90;;;17.50;99.90;;;17.40;100.00;101548.13;4154729;28;20038;-72
2023/08/08 07:22:08;;;;;;;5.22;1.70;;;17.60;99.90;;;17.33;100.00;101550.66;4154218;28;20022;-72
2023/08/08 07:24:09;;;;;;;8.55;1.77;;;17.60;99.90;;;17.36;100.00;101546.81;4151738;28;20030;-72
2023/08/08 07:26:10;;;;;;;5.90;1.98;;;17.70;99.90;;;17.41;100.00;101545.25;4125404;28;20472;-72
2023/08/08 07:28:11;;;;;;;3.17;1.50;;;17.70;99.90;;;17.44;100.00;101546.75;4154630;28;20088;-72
2023/08/08 07:30:13;;;;;;;6.40;1.73;;;17.80;99.90;;;17.40;100.00;101532.94;4165146;28;20052;-73
2023/08/08 07:32:13;;;;;;;7.78;2.53;;;17.90;99.90;;;17.26;100.00;101531.09;4138877;28;20034;-72
2023/08/08 07:34:14;;;;;;;8.77;2.38;;;17.80;99.90;;;17.60;100.00;101539.44;4153300;28;20076;-73
2023/08/08 07:36:15;;;;;;;4.18;1.67;;;17.90;99.90;;;17.89;100.00;101543.16;4163456;28;20030;-72
2023/08/08 07:38:16;;;;;;;6.43;1.90;;;18.00;99.90;;;18.10;100.00;101528.03;4154560;28;20022;-72
2023/08/08 07:40:19;;;;;;;4.18;1.80;;;18.20;99.90;;;18.31;100.00;101532.59;4154206;28;20445;-73
2023/08/08 07:42:20;;;;;;;6.80;1.90;;;18.40;99.90;;;18.55;100.00;101532.28;4137214;28;20026;-72
2023/08/08 07:44:21;;;;;;;3.33;1.35;;;18.60;99.90;;;18.68;100.00;101535.13;4161903;28;20029;-72
2023/08/08 07:46:23;;;;;;;4.88;1.30;;;18.80;99.90;;;18.73;100.00;101530.03;4142752;28;20027;-72
2023/08/08 07:48:23;;;;;;;3.70;1.25;;;18.90;99.90;;;18.86;100.00;101540.03;4150217;28;20026;-72
2023/08/08 07:50:25;;;;;;;5.50;1.48;;;19.00;99.90;;;18.85;100.00;101537.53;4167092;28;20084;-73
2023/08/08 07:52:26;;;;;;;4.40;1.52;;;19.10;99.90;;;18.69;100.00;101530.59;4144025;28;20077;-72
2023/08/08 07:54:26;;;;;;;3.67;1.60;;;19.00;99.90;;;18.57;100.00;101535.63;4153070;28;20025;-72
2023/08/08 07:56:28;;;;;;;3.70;1.58;;;18.90;99.90;;;18.42;100.00;101537.47;4150309;28;20080;-72
2023/08/08 07:58:29;;;;;;;2.95;0.90;;;18.80;99.90;;;18.29;100.00;101529.28;4154272;28;20053;-73
2023/08/08 08:00:30;;;;;;;2.88;1.02;;;18.70;99.90;;;18.11;100.00;101534.19;4160824;28;20087;-73
2023/08/08 08:02:31;;;;;;;5.40;1.83;;;18.50;99.90;;;17.97;100.00;101527.03;4142849;28;20442;-72
2023/08/08 08:04:32;;;;;;;4.20;1.40;;;18.50;99.90;;;17.88;100.00;101536.97;4166041;28;20034;-72
2023/08/08 08:06:33;;;;;;;2.95;1.20;;;18.40;99.90;;;17.85;100.00;101542.69;4154069;28;20030;-72
2023/08/08 08:08:33;;;;;;;4.20;1.50;;;18.40;99.90;;;17.71;100.00;101526.66;4143170;28;20539;-73
2023/08/08 08:10:34;;;;;;;2.17;1.00;;;18.30;99.90;;;17.91;100.00;101541.13;4145947;28;20061;-73
2023/08/08 08:12:35;;;;;;;8.65;2.22;;;18.30;99.90;;;17.99;100.00;101543.69;4170533;28;20040;-72
2023/08/08 08:14:36;;;;;;;3.00;1.05;;;18.40;99.90;;;18.20;100.00;101538.41;4136833;28;20053;-72
2023/08/08 08:16:38;;;;;;;1.58;1.00;;;18.50;99.90;;;18.37;100.00;101523.84;4146708;28;20023;-72
2023/08/08 08:18:39;;;;;;;2.63;1.10;;;18.70;99.90;;;18.64;100.00;101530.34;4145350;28;20040;-72